Listerhav — ZDKC7 — position and weather

sailwx.info

Track history (hours):
 
Tides and Currents Weather Stations Pressure Air Temp Water Temp Dewpoint Dewpoint Depression Visibility Wind Speed Wind Dir Waves Ship Positions

Listerhav

Last reported at 2014-Nov-28 02:18 UTC. Time now 2014-Nov-28 06:58 UTC.
Position N 56°14' E 012°16'.

Length 88 m; draft 5.9 m.

Type: Cargo ship. MMSI: 236591000.

Date/timePositionNaut miles runAvg speedWind from/ knotsBaromVisibWave heightAir tempDewpointWater temp
2014-Nov-28 02:18N 56°14' E 012°16'811.0
2014-Nov-28 01:33N 56°09' E 012°28'1010.4
2014-Nov-28 00:33N 56°01' E 012°40'10 9.5
2014-Nov-27 23:33N 55°52' E 012°44'10 9.6
2014-Nov-27 22:33N 55°42' E 012°41'1010.3
2014-Nov-27 21:33N 55°32' E 012°43'9 9.3
2014-Nov-27 20:33N 55°23' E 012°41'8 7.7
2014-Nov-27 19:33N 55°17' E 012°49'9 8.7
2014-Nov-27 18:33N 55°16' E 013°05'10 8.9
2014-Nov-27 17:27N 55°15' E 013°22'8 9.1
2014-Nov-27 16:32N 55°15' E 013°37'9 9.1
2014-Nov-27 15:33N 55°14' E 013°52'9 9.1
2014-Nov-27 14:33N 55°14' E 014°08'8 8.1
2014-Nov-27 13:33N 55°18' E 014°21'9 8.9
2014-Nov-27 12:33N 55°25' E 014°31'9 8.9
2014-Nov-27 11:33N 55°29' E 014°44'9 8.6
2014-Nov-27 10:33N 55°34' E 014°57'9 9.0
2014-Nov-27 09:33N 55°38' E 015°11'  
2014-Nov-23 06:24N 55°32' E 015°07'8 8.7
2014-Nov-23 05:32N 55°28' E 014°55'9 9.2
2014-Nov-23 04:30N 55°23' E 014°40'9 9.2
2014-Nov-23 03:33N 55°17' E 014°30'9 8.8
2014-Nov-23 02:34N 55°11' E 014°18'26 8.4
2014-Nov-22 23:24N 55°13' E 013°32'8 8.7
2014-Nov-22 22:31N 55°14' E 013°18'8 8.8
2014-Nov-22 21:34N 55°15' E 013°04'9 8.8
2014-Nov-22 20:33N 55°16' E 012°48'7 7.4
2014-Nov-22 19:33N 55°21' E 012°38'8 8.3
2014-Nov-22 18:33N 55°29' E 012°41'8 7.9
2014-Nov-22 17:33N 55°37' E 012°42'7 7.2
2014-Nov-22 16:34N 55°44' E 012°41'8 8.4
2014-Nov-22 15:34N 55°52' E 012°39'9 8.6
2014-Nov-22 14:33N 56°01' E 012°38'7 6.7
2014-Nov-22 13:34N 56°06' E 012°32'8 7.9
2014-Nov-22 12:33N 56°14' E 012°26'9 8.6
2014-Nov-22 11:33N 56°22' E 012°21'67 9.5
2014-Nov-22 04:33N 57°25' E 011°41'1010.0
2014-Nov-22 03:33N 57°34' E 011°33'10 9.5
2014-Nov-22 02:33N 57°43' E 011°29'9 9.3
2014-Nov-22 01:33N 57°52' E 011°30'9 9.0
2014-Nov-22 00:34N 57°58' E 011°43'9 9.0
2014-Nov-21 23:33N 58°07' E 011°48'9 8.8
2014-Nov-21 22:30N 58°16' E 011°50'5 5.2
2014-Nov-21 21:27N 58°21' E 011°54'0 0.0
2014-Nov-21 20:21N 58°21' E 011°54'0 0.0
2014-Nov-21 19:30N 58°21' E 011°54'0 0.0
2014-Nov-21 18:24N 58°21' E 011°54'0 0.0
2014-Nov-21 17:15N 58°21' E 011°54'0 0.0
2014-Nov-21 16:33N 58°21' E 011°54'0 0.0
2014-Nov-21 15:33N 58°21' E 011°54'0 0.0
2014-Nov-21 14:33N 58°21' E 011°54'0 0.0
2014-Nov-21 13:32N 58°21' E 011°54'0 0.0
2014-Nov-21 12:23N 58°21' E 011°54'0 0.0
2014-Nov-21 11:32N 58°21' E 011°54'0 0.0
2014-Nov-21 10:32N 58°21' E 011°54'0 0.0
2014-Nov-21 09:11N 58°21' E 011°54'0 0.0
2014-Nov-21 08:20N 58°21' E 011°54'0 0.0
2014-Nov-21 07:29N 58°21' E 011°54'0 0.0
2014-Nov-21 06:17N 58°21' E 011°54'0 0.0
2014-Nov-21 05:26N 58°21' E 011°54'0 0.0
2014-Nov-21 04:14N 58°21' E 011°54'0 0.0
2014-Nov-21 03:29N 58°21' E 011°54'0 0.0
2014-Nov-21 02:32N 58°21' E 011°54'0 0.0
2014-Nov-21 01:32N 58°21' E 011°54'0 0.0
2014-Nov-21 00:32N 58°21' E 011°54'0 0.0
2014-Nov-20 23:26N 58°21' E 011°54'0 0.0
2014-Nov-20 22:32N 58°21' E 011°54'0 0.0
2014-Nov-20 21:26N 58°21' E 011°54'0 0.0
2014-Nov-20 20:29N 58°21' E 011°54'0 0.0
2014-Nov-20 19:32N 58°21' E 011°54'0 0.0
2014-Nov-20 18:23N 58°21' E 011°54'0 0.0
2014-Nov-20 17:29N 58°21' E 011°54'0 0.0
2014-Nov-20 16:14N 58°21' E 011°54'0 0.0
2014-Nov-20 15:32N 58°21' E 011°54'0 0.0
2014-Nov-20 14:26N 58°21' E 011°54'0 0.0
2014-Nov-20 13:32N 58°21' E 011°54'0 0.0
2014-Nov-20 12:32N 58°21' E 011°54'0 0.0
2014-Nov-20 11:32N 58°21' E 011°54'0 0.0
2014-Nov-20 10:32N 58°21' E 011°54'0 0.0
2014-Nov-20 09:29N 58°21' E 011°54'0 0.0
2014-Nov-20 08:26N 58°21' E 011°54'0 0.0
2014-Nov-20 07:26N 58°21' E 011°54'0 0.0
2014-Nov-20 06:26N 58°21' E 011°54'0 0.0
2014-Nov-20 05:29N 58°21' E 011°54'0 0.0
2014-Nov-20 04:32N 58°21' E 011°54'0 0.0
2014-Nov-20 03:32N 58°21' E 011°54'0 0.0
2014-Nov-20 02:32N 58°21' E 011°54'0 0.0
2014-Nov-20 01:26N 58°21' E 011°54'0 0.0
2014-Nov-20 00:32N 58°21' E 011°54'0 0.0
2014-Nov-19 23:31N 58°21' E 011°54'0 0.0
2014-Nov-19 22:25N 58°21' E 011°54'0 0.0
2014-Nov-19 21:28N 58°21' E 011°54'0 0.0
2014-Nov-19 20:28N 58°21' E 011°54'0 0.0
2014-Nov-19 19:10N 58°21' E 011°54'0 0.0
2014-Nov-19 18:22N 58°21' E 011°54'0 0.0
2014-Nov-19 17:31N 58°21' E 011°54'0 0.0
2014-Nov-19 16:25N 58°21' E 011°54'0 0.0
2014-Nov-19 15:31N 58°21' E 011°54'0 0.0
2014-Nov-19 14:31N 58°21' E 011°54'0 0.0
2014-Nov-19 12:16N 58°21' E 011°54'0 0.0
2014-Nov-19 11:25N 58°21' E 011°54'0 0.0
2014-Nov-19 10:22N 58°21' E 011°54'0 0.0
2014-Nov-19 09:31N 58°21' E 011°54'0 0.0
2014-Nov-19 08:19N 58°21' E 011°54'0 0.0
2014-Nov-19 07:31N 58°21' E 011°54'0 0.0
2014-Nov-19 06:31N 58°21' E 011°54'0 0.0
2014-Nov-19 05:25N 58°21' E 011°54'0 0.0
2014-Nov-19 04:31N 58°21' E 011°54'0 0.0
2014-Nov-19 03:31N 58°21' E 011°54'0 0.0
2014-Nov-19 02:31N 58°21' E 011°54'0 0.0
2014-Nov-19 01:10N 58°21' E 011°54'0 0.0
2014-Nov-19 00:31N 58°21' E 011°54'0 0.0
2014-Nov-18 23:25N 58°21' E 011°54'0 0.0
2014-Nov-18 22:28N 58°21' E 011°54'0 0.0
2014-Nov-18 21:31N 58°21' E 011°54'0 0.0
2014-Nov-18 20:25N 58°21' E 011°54'0 0.0
2014-Nov-18 19:31N 58°21' E 011°54'0 0.0
2014-Nov-18 18:25N 58°21' E 011°54'0 0.0
2014-Nov-18 17:31N 58°21' E 011°54'0 0.0
2014-Nov-18 16:25N 58°21' E 011°54'0 0.0
2014-Nov-18 15:10N 58°21' E 011°54'0 0.0
2014-Nov-18 14:25N 58°21' E 011°54'0 0.0
2014-Nov-18 13:25N 58°21' E 011°54'0 0.0
2014-Nov-18 11:07N 58°21' E 011°54'0 0.0
2014-Nov-18 08:24N 58°21' E 011°54'0 0.0
2014-Nov-18 06:06N 58°21' E 011°54'0 0.0
2014-Nov-18 05:30N 58°21' E 011°54'0 0.0
2014-Nov-18 04:30N 58°21' E 011°54'0 0.0
2014-Nov-18 03:18N 58°21' E 011°54'0 0.0
2014-Nov-18 02:24N 58°21' E 011°54'  
Track history (hours):
 
Tides and Currents Weather Stations Pressure Air Temp Water Temp Dewpoint Dewpoint Depression Visibility Wind Speed Wind Dir Waves Ship Positions

Listerhav

Last reported at 2014-Nov-28 02:18 UTC. Time now 2014-Nov-28 06:58 UTC.
Position N 56°14' E 012°16'.

Length 88 m; draft 5.9 m.

Type: Cargo ship. MMSI: 236591000.

Date/timePositionNaut miles runAvg speedWind from/ knotsBaromVisibWave heightAir tempDewpointWater temp
2014-Nov-28 02:18N 56°14' E 012°16'811.0
2014-Nov-28 01:33N 56°09' E 012°28'1010.4
2014-Nov-28 00:33N 56°01' E 012°40'10 9.5
2014-Nov-27 23:33N 55°52' E 012°44'10 9.6
2014-Nov-27 22:33N 55°42' E 012°41'1010.3
2014-Nov-27 21:33N 55°32' E 012°43'9 9.3
2014-Nov-27 20:33N 55°23' E 012°41'8 7.7
2014-Nov-27 19:33N 55°17' E 012°49'9 8.7
2014-Nov-27 18:33N 55°16' E 013°05'10 8.9
2014-Nov-27 17:27N 55°15' E 013°22'8 9.1
2014-Nov-27 16:32N 55°15' E 013°37'9 9.1
2014-Nov-27 15:33N 55°14' E 013°52'9 9.1
2014-Nov-27 14:33N 55°14' E 014°08'8 8.1
2014-Nov-27 13:33N 55°18' E 014°21'9 8.9
2014-Nov-27 12:33N 55°25' E 014°31'9 8.9
2014-Nov-27 11:33N 55°29' E 014°44'9 8.6
2014-Nov-27 10:33N 55°34' E 014°57'9 9.0
2014-Nov-27 09:33N 55°38' E 015°11'  
2014-Nov-23 06:24N 55°32' E 015°07'8 8.7
2014-Nov-23 05:32N 55°28' E 014°55'9 9.2
2014-Nov-23 04:30N 55°23' E 014°40'9 9.2
2014-Nov-23 03:33N 55°17' E 014°30'9 8.8
2014-Nov-23 02:34N 55°11' E 014°18'26 8.4
2014-Nov-22 23:24N 55°13' E 013°32'8 8.7
2014-Nov-22 22:31N 55°14' E 013°18'8 8.8
2014-Nov-22 21:34N 55°15' E 013°04'9 8.8
2014-Nov-22 20:33N 55°16' E 012°48'7 7.4
2014-Nov-22 19:33N 55°21' E 012°38'8 8.3
2014-Nov-22 18:33N 55°29' E 012°41'8 7.9
2014-Nov-22 17:33N 55°37' E 012°42'7 7.2
2014-Nov-22 16:34N 55°44' E 012°41'8 8.4
2014-Nov-22 15:34N 55°52' E 012°39'9 8.6
2014-Nov-22 14:33N 56°01' E 012°38'7 6.7
2014-Nov-22 13:34N 56°06' E 012°32'8 7.9
2014-Nov-22 12:33N 56°14' E 012°26'9 8.6
2014-Nov-22 11:33N 56°22' E 012°21'67 9.5
2014-Nov-22 04:33N 57°25' E 011°41'1010.0
2014-Nov-22 03:33N 57°34' E 011°33'10 9.5
2014-Nov-22 02:33N 57°43' E 011°29'9 9.3
2014-Nov-22 01:33N 57°52' E 011°30'9 9.0
2014-Nov-22 00:34N 57°58' E 011°43'9 9.0
2014-Nov-21 23:33N 58°07' E 011°48'9 8.8
2014-Nov-21 22:30N 58°16' E 011°50'5 5.2
2014-Nov-21 21:27N 58°21' E 011°54'0 0.0
2014-Nov-21 20:21N 58°21' E 011°54'0 0.0
2014-Nov-21 19:30N 58°21' E 011°54'0 0.0
2014-Nov-21 18:24N 58°21' E 011°54'0 0.0
2014-Nov-21 17:15N 58°21' E 011°54'0 0.0
2014-Nov-21 16:33N 58°21' E 011°54'0 0.0
2014-Nov-21 15:33N 58°21' E 011°54'0 0.0
2014-Nov-21 14:33N 58°21' E 011°54'0 0.0
2014-Nov-21 13:32N 58°21' E 011°54'0 0.0
2014-Nov-21 12:23N 58°21' E 011°54'0 0.0
2014-Nov-21 11:32N 58°21' E 011°54'0 0.0
2014-Nov-21 10:32N 58°21' E 011°54'0 0.0
2014-Nov-21 09:11N 58°21' E 011°54'0 0.0
2014-Nov-21 08:20N 58°21' E 011°54'0 0.0
2014-Nov-21 07:29N 58°21' E 011°54'0 0.0
2014-Nov-21 06:17N 58°21' E 011°54'0 0.0
2014-Nov-21 05:26N 58°21' E 011°54'0 0.0
2014-Nov-21 04:14N 58°21' E 011°54'0 0.0
2014-Nov-21 03:29N 58°21' E 011°54'0 0.0
2014-Nov-21 02:32N 58°21' E 011°54'0 0.0
2014-Nov-21 01:32N 58°21' E 011°54'0 0.0
2014-Nov-21 00:32N 58°21' E 011°54'0 0.0
2014-Nov-20 23:26N 58°21' E 011°54'0 0.0
2014-Nov-20 22:32N 58°21' E 011°54'0 0.0
2014-Nov-20 21:26N 58°21' E 011°54'0 0.0
2014-Nov-20 20:29N 58°21' E 011°54'0 0.0
2014-Nov-20 19:32N 58°21' E 011°54'0 0.0
2014-Nov-20 18:23N 58°21' E 011°54'0 0.0
2014-Nov-20 17:29N 58°21' E 011°54'0 0.0
2014-Nov-20 16:14N 58°21' E 011°54'0 0.0
2014-Nov-20 15:32N 58°21' E 011°54'0 0.0
2014-Nov-20 14:26N 58°21' E 011°54'0 0.0
2014-Nov-20 13:32N 58°21' E 011°54'0 0.0
2014-Nov-20 12:32N 58°21' E 011°54'0 0.0
2014-Nov-20 11:32N 58°21' E 011°54'0 0.0
2014-Nov-20 10:32N 58°21' E 011°54'0 0.0
2014-Nov-20 09:29N 58°21' E 011°54'0 0.0
2014-Nov-20 08:26N 58°21' E 011°54'0 0.0
2014-Nov-20 07:26N 58°21' E 011°54'0 0.0
2014-Nov-20 06:26N 58°21' E 011°54'0 0.0
2014-Nov-20 05:29N 58°21' E 011°54'0 0.0
2014-Nov-20 04:32N 58°21' E 011°54'0 0.0
2014-Nov-20 03:32N 58°21' E 011°54'0 0.0
2014-Nov-20 02:32N 58°21' E 011°54'0 0.0
2014-Nov-20 01:26N 58°21' E 011°54'0 0.0
2014-Nov-20 00:32N 58°21' E 011°54'0 0.0
2014-Nov-19 23:31N 58°21' E 011°54'0 0.0
2014-Nov-19 22:25N 58°21' E 011°54'0 0.0
2014-Nov-19 21:28N 58°21' E 011°54'0 0.0
2014-Nov-19 20:28N 58°21' E 011°54'0 0.0
2014-Nov-19 19:10N 58°21' E 011°54'0 0.0
2014-Nov-19 18:22N 58°21' E 011°54'0 0.0
2014-Nov-19 17:31N 58°21' E 011°54'0 0.0
2014-Nov-19 16:25N 58°21' E 011°54'0 0.0
2014-Nov-19 15:31N 58°21' E 011°54'0 0.0
2014-Nov-19 14:31N 58°21' E 011°54'0 0.0
2014-Nov-19 12:16N 58°21' E 011°54'0 0.0
2014-Nov-19 11:25N 58°21' E 011°54'0 0.0
2014-Nov-19 10:22N 58°21' E 011°54'0 0.0
2014-Nov-19 09:31N 58°21' E 011°54'0 0.0
2014-Nov-19 08:19N 58°21' E 011°54'0 0.0
2014-Nov-19 07:31N 58°21' E 011°54'0 0.0
2014-Nov-19 06:31N 58°21' E 011°54'0 0.0
2014-Nov-19 05:25N 58°21' E 011°54'0 0.0
2014-Nov-19 04:31N 58°21' E 011°54'0 0.0
2014-Nov-19 03:31N 58°21' E 011°54'0 0.0
2014-Nov-19 02:31N 58°21' E 011°54'0 0.0
2014-Nov-19 01:10N 58°21' E 011°54'0 0.0
2014-Nov-19 00:31N 58°21' E 011°54'0 0.0
2014-Nov-18 23:25N 58°21' E 011°54'0 0.0
2014-Nov-18 22:28N 58°21' E 011°54'0 0.0
2014-Nov-18 21:31N 58°21' E 011°54'0 0.0
2014-Nov-18 20:25N 58°21' E 011°54'0 0.0
2014-Nov-18 19:31N 58°21' E 011°54'0 0.0
2014-Nov-18 18:25N 58°21' E 011°54'0 0.0
2014-Nov-18 17:31N 58°21' E 011°54'0 0.0
2014-Nov-18 16:25N 58°21' E 011°54'0 0.0
2014-Nov-18 15:10N 58°21' E 011°54'0 0.0
2014-Nov-18 14:25N 58°21' E 011°54'0 0.0
2014-Nov-18 13:25N 58°21' E 011°54'0 0.0
2014-Nov-18 11:07N 58°21' E 011°54'0 0.0
2014-Nov-18 08:24N 58°21' E 011°54'0 0.0
2014-Nov-18 06:06N 58°21' E 011°54'0 0.0
2014-Nov-18 05:30N 58°21' E 011°54'0 0.0
2014-Nov-18 04:30N 58°21' E 011°54'0 0.0
2014-Nov-18 03:18N 58°21' E 011°54'0 0.0
2014-Nov-18 02:24N 58°21' E 011°54'  

Dump ship's entire track history